createdAt,value
2023-03-29T00:00:12.238Z,101708.09
2023-03-29T00:02:40.171Z,101701.56
2023-03-29T00:05:09.874Z,101695.53
2023-03-29T00:07:37.604Z,101700.22
2023-03-29T00:10:07.566Z,101696.44
2023-03-29T00:12:35.487Z,101705.75
2023-03-29T00:15:03.602Z,101680.59
2023-03-29T00:17:32.700Z,101691.31
2023-03-29T00:20:00.659Z,101686.69
2023-03-29T00:22:28.414Z,101675.88
2023-03-29T00:24:56.439Z,101662.09
2023-03-29T00:27:24.162Z,101657.06
2023-03-29T00:29:51.895Z,101680.50
2023-03-29T00:32:19.674Z,101681.88
2023-03-29T00:34:50.821Z,101686.28
2023-03-29T00:37:19.012Z,101690.09
2023-03-29T00:39:48.282Z,101696.06
2023-03-29T00:42:18.616Z,101696.91
2023-03-29T00:45:18.793Z,101688.16
2023-03-29T00:47:49.669Z,101700.88
2023-03-29T00:50:22.310Z,101706.31
2023-03-29T00:52:55.511Z,101679.31
2023-03-29T00:55:25.824Z,101680.00
2023-03-29T00:57:57.012Z,101669.06
2023-03-29T01:00:32.278Z,101675.66
2023-03-29T01:03:02.733Z,101661.81
2023-03-29T01:05:37.661Z,101671.38
2023-03-29T01:08:11.156Z,101671.34
2023-03-29T01:10:43.206Z,101649.88
2023-03-29T01:13:14.492Z,101639.97
2023-03-29T01:15:45.528Z,101637.34
2023-03-29T01:18:13.927Z,101639.50
2023-03-29T01:20:52.606Z,101629.75
2023-03-29T01:23:46.567Z,101656.28
2023-03-29T01:26:24.948Z,101642.50
2023-03-29T01:28:59.566Z,101636.09
2023-03-29T01:31:29.640Z,101632.56
2023-03-29T01:34:03.810Z,101614.59
2023-03-29T01:36:38.942Z,101628.28
2023-03-29T01:39:08.045Z,101631.84
2023-03-29T01:41:48.188Z,101628.50
2023-03-29T01:44:22.269Z,101621.56
2023-03-29T01:46:57.508Z,101629.88
2023-03-29T01:49:29.654Z,101644.72
2023-03-29T01:52:02.203Z,101627.91
2023-03-29T01:54:34.185Z,101620.16
2023-03-29T01:57:04.707Z,101627.91
2023-03-29T01:59:36.918Z,101618.16
2023-03-29T02:02:11.302Z,101607.44
2023-03-29T02:04:44.736Z,101615.38
2023-03-29T02:07:13.806Z,101615.53
2023-03-29T02:09:42.055Z,101610.63
2023-03-29T02:12:11.348Z,101607.91
2023-03-29T02:14:40.493Z,101594.13
2023-03-29T02:17:18.324Z,101583.38
2023-03-29T02:19:50.129Z,101590.56
2023-03-29T02:22:24.188Z,101604.53
2023-03-29T02:24:59.087Z,101609.41
2023-03-29T02:27:29.096Z,101598.94
2023-03-29T02:29:58.496Z,101593.47
2023-03-29T02:32:32.734Z,101594.72
2023-03-29T02:35:06.652Z,101586.09
2023-03-29T02:37:41.033Z,101576.00
2023-03-29T02:40:12.652Z,101581.00
2023-03-29T02:42:41.515Z,101579.44
2023-03-29T02:45:13.350Z,101580.75
2023-03-29T02:47:46.373Z,101585.72
2023-03-29T02:50:14.213Z,101584.28
2023-03-29T02:52:47.152Z,101586.28
2023-03-29T02:55:18.784Z,101575.22
2023-03-29T02:57:46.627Z,101571.91
2023-03-29T03:00:20.140Z,101571.88
2023-03-29T03:02:50.817Z,101562.88
2023-03-29T03:05:19.350Z,101565.22
2023-03-29T03:07:47.161Z,101557.44
2023-03-29T03:10:15.136Z,101550.81
2023-03-29T03:12:42.881Z,101542.81
2023-03-29T03:15:11.243Z,101545.78
2023-03-29T03:17:40.468Z,101540.22
2023-03-29T03:20:12.675Z,101550.41
2023-03-29T03:22:41.918Z,101537.63
2023-03-29T03:25:11.407Z,101533.38
2023-03-29T03:27:40.054Z,101500.28
2023-03-29T03:30:09.173Z,101517.16
2023-03-29T03:32:37.593Z,101541.72
2023-03-29T03:35:08.003Z,101535.41
2023-03-29T03:37:35.713Z,101554.09
2023-03-29T03:40:03.784Z,101548.81
2023-03-29T03:42:31.541Z,101541.38
2023-03-29T03:44:59.621Z,101539.66
2023-03-29T03:47:27.359Z,101516.91
2023-03-29T03:49:55.510Z,101513.38
2023-03-29T03:52:25.252Z,101507.19
2023-03-29T03:54:53.035Z,101506.94
2023-03-29T03:57:20.850Z,101490.28
2023-03-29T03:59:48.996Z,101493.22
2023-03-29T04:02:16.733Z,101471.13
2023-03-29T04:04:44.459Z,101479.38
2023-03-29T04:07:14.214Z,101471.41
2023-03-29T04:09:43.304Z,101467.66
2023-03-29T04:12:11.762Z,101455.00
2023-03-29T04:14:39.751Z,101441.91
2023-03-29T04:17:07.941Z,101464.63
2023-03-29T04:19:36.000Z,101456.19
2023-03-29T04:22:03.730Z,101479.13
2023-03-29T04:24:31.481Z,101461.84
2023-03-29T04:27:00.552Z,101447.84
2023-03-29T04:29:28.287Z,101439.38
2023-03-29T04:31:56.461Z,101418.59
2023-03-29T04:34:24.300Z,101405.38
2023-03-29T04:36:52.032Z,101380.72
2023-03-29T04:39:19.913Z,101391.06
2023-03-29T04:41:48.504Z,101385.16
2023-03-29T04:44:17.948Z,101366.94
2023-03-29T04:46:45.710Z,101375.84
2023-03-29T04:49:13.601Z,101364.34
2023-03-29T04:51:41.319Z,101361.31
2023-03-29T04:54:09.018Z,101382.22
2023-03-29T04:56:36.820Z,101375.50
2023-03-29T04:59:04.675Z,101379.28
2023-03-29T05:01:33.836Z,101380.91
2023-03-29T05:04:02.499Z,101381.31
2023-03-29T05:06:31.090Z,101393.88
2023-03-29T05:08:59.007Z,101375.47
2023-03-29T05:11:27.627Z,101393.66
2023-03-29T05:13:58.450Z,101392.78
2023-03-29T05:16:26.438Z,101395.03
2023-03-29T05:18:55.887Z,101393.38
2023-03-29T05:21:24.029Z,101395.03
2023-03-29T05:23:51.767Z,101391.66
2023-03-29T05:26:19.604Z,101392.44
2023-03-29T05:28:47.296Z,101374.59
2023-03-29T05:31:16.981Z,101369.25
2023-03-29T05:33:45.364Z,101374.97
2023-03-29T05:36:16.342Z,101387.53
2023-03-29T05:38:46.608Z,101390.97
2023-03-29T05:41:15.843Z,101390.16
2023-03-29T05:43:43.563Z,101379.00
2023-03-29T05:46:12.372Z,101380.03
2023-03-29T05:48:40.153Z,101387.53
2023-03-29T05:51:08.328Z,101373.09
2023-03-29T05:53:37.824Z,101384.16
2023-03-29T05:56:06.606Z,101374.38
2023-03-29T05:58:34.291Z,101395.63
2023-03-29T06:01:05.515Z,101391.75
2023-03-29T06:03:33.640Z,101386.50
2023-03-29T06:06:03.823Z,101397.38
2023-03-29T06:08:32.528Z,101396.91
2023-03-29T06:11:04.908Z,101401.03
2023-03-29T06:13:34.500Z,101413.44
2023-03-29T06:16:02.469Z,101411.75
2023-03-29T06:18:30.210Z,101430.03
2023-03-29T06:20:57.944Z,101409.25
2023-03-29T06:23:25.957Z,101411.25
2023-03-29T06:25:55.177Z,101409.78
2023-03-29T06:28:25.029Z,101406.50
2023-03-29T06:30:54.027Z,101414.53
2023-03-29T06:33:21.771Z,101410.63
2023-03-29T06:35:50.102Z,101411.44
2023-03-29T06:38:17.903Z,101416.97
2023-03-29T06:40:45.802Z,101414.81
2023-03-29T06:43:14.079Z,101424.94
2023-03-29T06:45:43.812Z,101432.19
2023-03-29T06:48:12.256Z,101444.47
2023-03-29T06:50:40.084Z,101431.81
2023-03-29T06:53:07.857Z,101446.25
2023-03-29T06:55:36.071Z,101456.19
2023-03-29T06:58:04.232Z,101442.94
2023-03-29T07:00:31.983Z,101452.34
2023-03-29T07:03:06.632Z,101462.03
2023-03-29T07:05:36.354Z,101467.88
2023-03-29T07:08:13.946Z,101465.09
2023-03-29T07:10:43.794Z,101482.41
2023-03-29T07:13:13.598Z,101475.03
2023-03-29T07:15:42.437Z,101491.97
2023-03-29T07:18:12.509Z,101484.72
2023-03-29T07:20:41.753Z,101491.03
2023-03-29T07:23:10.567Z,101495.31
2023-03-29T07:25:39.358Z,101500.09
2023-03-29T07:28:07.414Z,101503.19
2023-03-29T07:30:35.695Z,101491.69
2023-03-29T07:33:04.442Z,101502.50
2023-03-29T07:35:33.717Z,101490.81
2023-03-29T07:38:01.509Z,101491.25
2023-03-29T07:40:29.460Z,101491.25
2023-03-29T07:42:58.764Z,101501.03
2023-03-29T07:45:29.084Z,101487.38
2023-03-29T07:47:58.907Z,101492.59
2023-03-29T07:50:27.082Z,101485.88
2023-03-29T07:52:56.863Z,101494.19
2023-03-29T07:55:24.678Z,101495.16
2023-03-29T07:57:53.560Z,101488.38
2023-03-29T08:00:22.585Z,101497.25
2023-03-29T08:02:52.268Z,101472.03
2023-03-29T08:05:37.572Z,101475.59
2023-03-29T08:08:07.950Z,101477.41
2023-03-29T08:10:37.293Z,101483.28
2023-03-29T08:13:07.273Z,101477.72
2023-03-29T08:15:35.700Z,101484.69
2023-03-29T08:18:03.434Z,101473.31
2023-03-29T08:20:32.172Z,101470.69
2023-03-29T08:22:59.913Z,101460.25
2023-03-29T08:25:29.066Z,101463.66
2023-03-29T08:27:57.156Z,101450.00
2023-03-29T08:30:25.026Z,101443.63
2023-03-29T08:32:55.192Z,101454.25
2023-03-29T08:35:23.732Z,101449.53
2023-03-29T08:37:51.499Z,101452.50
2023-03-29T08:40:22.731Z,101442.16
2023-03-29T08:43:25.947Z,101430.81
2023-03-29T08:46:08.583Z,101433.69
2023-03-29T08:48:42.259Z,101424.75
2023-03-29T08:51:18.458Z,101437.47
2023-03-29T08:53:49.342Z,101427.28
2023-03-29T08:56:21.498Z,101429.09
2023-03-29T08:58:52.410Z,101421.66
2023-03-29T09:01:23.756Z,101429.72
2023-03-29T09:04:01.316Z,101426.22
2023-03-29T09:06:29.115Z,101429.47
2023-03-29T09:08:57.324Z,101432.56
2023-03-29T09:11:47.701Z,101425.22
2023-03-29T09:14:32.859Z,101435.47
2023-03-29T09:17:08.760Z,101424.44
2023-03-29T09:19:43.797Z,101442.06
2023-03-29T09:22:23.643Z,101431.63
2023-03-29T09:25:03.297Z,101435.47
2023-03-29T09:27:38.880Z,101425.75
2023-03-29T09:30:17.184Z,101430.19
2023-03-29T09:32:52.916Z,101424.56
2023-03-29T09:35:24.535Z,101403.41
2023-03-29T09:37:54.245Z,101399.66
2023-03-29T09:40:25.677Z,101401.22
2023-03-29T09:42:56.621Z,101399.22
2023-03-29T09:45:24.964Z,101403.34
2023-03-29T09:47:58.054Z,101396.72
2023-03-29T09:50:32.344Z,101388.41
2023-03-29T09:53:01.087Z,101402.06
2023-03-29T09:55:32.341Z,101393.31
2023-03-29T09:58:03.491Z,101401.38
2023-03-29T10:00:31.216Z,101394.59
2023-03-29T10:03:00.733Z,101386.88
2023-03-29T10:05:33.230Z,101394.69
2023-03-29T10:08:02.355Z,101415.38
2023-03-29T10:10:32.364Z,101394.88
2023-03-29T10:13:02.632Z,101409.31
2023-03-29T10:15:31.551Z,101391.72
2023-03-29T10:18:03.422Z,101379.00
2023-03-29T10:20:31.614Z,101393.06
2023-03-29T10:23:00.763Z,101400.53
2023-03-29T10:25:32.851Z,101421.22
2023-03-29T10:28:06.062Z,101398.34
2023-03-29T10:30:38.608Z,101390.38
2023-03-29T10:33:17.510Z,101385.47
2023-03-29T10:35:45.802Z,101395.63
2023-03-29T10:38:15.837Z,101390.38
2023-03-29T10:40:47.281Z,101407.59
2023-03-29T10:43:22.783Z,101375.88
2023-03-29T10:45:52.618Z,101370.00
2023-03-29T10:48:26.371Z,101378.84
2023-03-29T10:50:54.166Z,101372.00
2023-03-29T10:53:26.170Z,101373.28
2023-03-29T10:56:07.574Z,101371.44
2023-03-29T10:58:43.486Z,101376.75
2023-03-29T11:01:18.697Z,101370.03
2023-03-29T11:04:05.668Z,101375.09
2023-03-29T11:06:39.873Z,101391.06
2023-03-29T11:09:18.713Z,101360.94
2023-03-29T11:12:15.035Z,101361.28
2023-03-29T11:14:56.899Z,101354.41
2023-03-29T11:17:41.948Z,101363.34
2023-03-29T11:20:20.598Z,101371.53
2023-03-29T11:22:53.795Z,101355.13
2023-03-29T11:25:30.172Z,101356.84
2023-03-29T11:28:07.563Z,101366.00
2023-03-29T11:30:42.870Z,101350.66
2023-03-29T11:33:23.107Z,101358.03
2023-03-29T11:36:02.421Z,101349.34
2023-03-29T11:38:37.089Z,101338.31
2023-03-29T11:41:15.793Z,101338.28
2023-03-29T11:43:47.753Z,101341.81
2023-03-29T11:46:20.014Z,101335.59
2023-03-29T11:48:52.879Z,101357.97
2023-03-29T11:51:26.321Z,101339.91
2023-03-29T11:54:03.994Z,101341.19
2023-03-29T11:56:38.029Z,101332.47
2023-03-29T11:59:12.662Z,101341.97
2023-03-29T12:01:46.863Z,101329.75
2023-03-29T12:04:22.849Z,101345.25
2023-03-29T12:06:59.483Z,101324.91
2023-03-29T12:09:33.467Z,101333.28
2023-03-29T12:12:09.979Z,101328.47
2023-03-29T12:14:50.163Z,101330.53
2023-03-29T12:17:21.632Z,101322.38
2023-03-29T12:19:54.449Z,101329.75
2023-03-29T12:22:24.748Z,101318.63
2023-03-29T12:24:54.764Z,101316.88
2023-03-29T12:27:28.901Z,101324.72
2023-03-29T12:30:24.739Z,101327.72
2023-03-29T12:33:09.872Z,101316.59
2023-03-29T12:35:47.288Z,101309.56
2023-03-29T12:38:22.004Z,101313.94
2023-03-29T12:40:56.287Z,101289.38
2023-03-29T12:43:26.211Z,101298.78
2023-03-29T12:45:57.193Z,101291.56
2023-03-29T12:48:27.725Z,101288.41
2023-03-29T12:51:00.896Z,101278.34
2023-03-29T12:53:35.751Z,101280.78
2023-03-29T12:56:16.147Z,101281.56
2023-03-29T12:58:54.358Z,101275.13
2023-03-29T13:01:29.595Z,101263.44
2023-03-29T13:04:14.355Z,101271.94
2023-03-29T13:09:51.952Z,101277.94
2023-03-29T13:12:26.756Z,101285.44
2023-03-29T13:14:56.633Z,101278.50
2023-03-29T13:17:28.801Z,101266.25
2023-03-29T13:20:15.461Z,101271.13
2023-03-29T13:22:54.878Z,101273.53
2023-03-29T13:25:41.305Z,101262.28
2023-03-29T13:28:18.504Z,101265.94
2023-03-29T13:30:54.238Z,101254.44
2023-03-29T13:33:39.607Z,101260.22
2023-03-29T13:36:15.540Z,101245.78
2023-03-29T13:38:49.361Z,101255.91
2023-03-29T13:41:44.283Z,101255.72
2023-03-29T13:44:27.212Z,101256.03
2023-03-29T13:47:16.332Z,101254.97
2023-03-29T13:49:49.709Z,101251.53
2023-03-29T13:52:25.609Z,101250.50
2023-03-29T13:54:58.206Z,101250.78
2023-03-29T13:57:34.043Z,101266.03
2023-03-29T14:00:11.781Z,101257.69
2023-03-29T14:02:47.324Z,101249.69
2023-03-29T14:05:20.048Z,101265.28
2023-03-29T14:07:51.528Z,101248.44
2023-03-29T14:10:24.857Z,101250.44
2023-03-29T14:12:56.811Z,101239.81
2023-03-29T14:15:27.022Z,101250.47
2023-03-29T14:17:58.974Z,101239.00
2023-03-29T14:20:28.956Z,101246.56
2023-03-29T14:22:56.661Z,101240.59
2023-03-29T14:25:25.558Z,101238.13
2023-03-29T14:27:54.684Z,101241.81
2023-03-29T14:30:27.946Z,101242.94
2023-03-29T14:32:56.793Z,101249.53
2023-03-29T14:35:32.819Z,101237.13
2023-03-29T14:38:01.586Z,101239.31
2023-03-29T14:40:32.537Z,101244.47
2023-03-29T14:43:07.135Z,101232.19
2023-03-29T14:45:35.261Z,101237.31
2023-03-29T14:48:04.347Z,101229.50
2023-03-29T14:50:32.472Z,101239.25
2023-03-29T14:53:02.691Z,101227.38
2023-03-29T14:55:31.020Z,101220.47
2023-03-29T14:58:00.193Z,101216.50
2023-03-29T15:00:35.001Z,101214.28
2023-03-29T15:03:03.956Z,101205.06
2023-03-29T15:05:36.331Z,101210.78
2023-03-29T15:08:04.759Z,101196.16
2023-03-29T15:10:34.360Z,101197.31
2023-03-29T15:13:04.132Z,101201.53
2023-03-29T15:15:35.667Z,101192.78
2023-03-29T15:18:05.503Z,101193.19
2023-03-29T15:20:35.614Z,101190.81
2023-03-29T15:23:09.486Z,101180.91
2023-03-29T15:25:39.632Z,101181.28
2023-03-29T15:28:07.569Z,101179.66
2023-03-29T15:30:40.602Z,101171.41
2023-03-29T15:33:16.549Z,101174.47
2023-03-29T15:35:49.827Z,101177.47
2023-03-29T15:38:18.188Z,101165.50
2023-03-29T15:40:46.161Z,101167.34
2023-03-29T15:43:14.259Z,101161.00
2023-03-29T15:45:43.801Z,101151.88
2023-03-29T15:48:16.403Z,101152.84
2023-03-29T15:50:45.264Z,101149.88
2023-03-29T15:53:15.414Z,101148.94
2023-03-29T15:55:45.817Z,101151.97
2023-03-29T15:58:16.029Z,101153.38
2023-03-29T16:00:51.165Z,101144.47
2023-03-29T16:03:19.300Z,101155.91
2023-03-29T16:05:47.490Z,101143.75
2023-03-29T16:08:15.371Z,101144.63
2023-03-29T16:10:44.733Z,101143.50
2023-03-29T16:13:14.644Z,101134.56
2023-03-29T16:15:43.359Z,101139.69
2023-03-29T16:18:12.500Z,101137.63
2023-03-29T16:20:40.534Z,101137.88
2023-03-29T16:23:09.802Z,101120.47
2023-03-29T16:25:39.858Z,101137.59
2023-03-29T16:28:09.054Z,101106.50
2023-03-29T16:30:38.361Z,101105.22
2023-03-29T16:33:08.598Z,101093.50
2023-03-29T16:35:41.099Z,101088.09
2023-03-29T16:38:09.739Z,101084.28
2023-03-29T16:40:38.434Z,101092.25
2023-03-29T16:43:06.624Z,101095.25
2023-03-29T16:45:34.329Z,101092.72
2023-03-29T16:48:02.607Z,101096.72
2023-03-29T16:50:32.804Z,101101.34
2023-03-29T16:53:01.892Z,101094.09
2023-03-29T16:55:29.791Z,101099.44
2023-03-29T16:57:57.563Z,101091.00
2023-03-29T17:00:25.817Z,101078.34
2023-03-29T17:02:53.667Z,101079.59
2023-03-29T17:05:21.457Z,101082.06
2023-03-29T17:07:49.641Z,101070.84
2023-03-29T17:10:18.877Z,101041.13
2023-03-29T17:12:46.670Z,101052.44
2023-03-29T17:15:14.744Z,101065.06
2023-03-29T17:17:42.667Z,101063.94
2023-03-29T17:20:12.882Z,101060.34
2023-03-29T17:22:41.055Z,101062.66
2023-03-29T17:25:10.065Z,101043.56
2023-03-29T17:27:39.225Z,101057.47
2023-03-29T17:30:08.429Z,101056.97
2023-03-29T17:32:36.740Z,101043.19
2023-03-29T17:35:04.939Z,101045.00
2023-03-29T17:37:32.704Z,101041.06
2023-03-29T17:40:00.760Z,101049.59
2023-03-29T17:42:28.585Z,101039.84
2023-03-29T17:44:57.740Z,101052.66
2023-03-29T17:47:25.594Z,101039.66
2023-03-29T17:49:53.900Z,101048.34
2023-03-29T17:52:21.658Z,101053.75
2023-03-29T17:54:49.979Z,101058.78
2023-03-29T17:57:17.852Z,101067.88
2023-03-29T17:59:45.813Z,101070.22
2023-03-29T18:02:17.994Z,101068.22
2023-03-29T18:04:46.142Z,101074.56
2023-03-29T18:07:14.217Z,101069.41
2023-03-29T18:09:42.086Z,101063.81
2023-03-29T18:12:10.275Z,101063.09
2023-03-29T18:14:40.895Z,101072.31
2023-03-29T18:17:08.665Z,101068.22
2023-03-29T18:19:37.801Z,101068.41
2023-03-29T18:22:05.740Z,101057.53
2023-03-29T18:24:33.722Z,101066.03
2023-03-29T18:27:01.479Z,101058.53
2023-03-29T18:29:29.285Z,101057.50
2023-03-29T18:31:57.117Z,101050.28
2023-03-29T18:34:24.880Z,101055.69
2023-03-29T18:36:54.012Z,101056.25
2023-03-29T18:39:21.978Z,101055.56
2023-03-29T18:41:49.728Z,101075.72
2023-03-29T18:44:17.820Z,101083.94
2023-03-29T18:46:45.541Z,101086.88
2023-03-29T18:49:13.658Z,101090.47
2023-03-29T18:51:42.252Z,101080.09
2023-03-29T18:54:11.635Z,101089.84
2023-03-29T18:56:39.422Z,101086.66
2023-03-29T18:59:07.247Z,101077.16
2023-03-29T19:01:35.071Z,101052.34
2023-03-29T19:04:03.019Z,101031.63
2023-03-29T19:06:31.701Z,101033.94
2023-03-29T19:09:01.942Z,101010.91
2023-03-29T19:11:31.224Z,101023.78
2023-03-29T19:13:59.045Z,101018.19
2023-03-29T19:16:27.542Z,101006.53
2023-03-29T19:18:55.777Z,101016.22
2023-03-29T19:21:23.732Z,100986.38
2023-03-29T19:23:52.961Z,100993.09
2023-03-29T19:26:20.758Z,101000.59
2023-03-29T19:28:49.988Z,100977.75
2023-03-29T19:31:17.761Z,100967.69
2023-03-29T19:33:45.576Z,100956.00
2023-03-29T19:36:13.510Z,100945.22
2023-03-29T19:38:41.766Z,100945.41
2023-03-29T19:41:09.588Z,100937.59
2023-03-29T19:43:37.347Z,100947.47
2023-03-29T19:46:11.662Z,100934.22
2023-03-29T19:48:40.426Z,100953.84
2023-03-29T19:51:08.859Z,100955.91
2023-03-29T19:53:38.624Z,100951.06
2023-03-29T19:56:07.817Z,100966.13
2023-03-29T19:58:35.731Z,100947.88
2023-03-29T20:01:03.763Z,100946.25
2023-03-29T20:03:34.163Z,100932.41
2023-03-29T20:06:02.574Z,100926.03
2023-03-29T20:08:30.549Z,100919.84
2023-03-29T20:10:59.571Z,100900.75
2023-03-29T20:13:37.486Z,100893.06
2023-03-29T20:16:07.422Z,100906.91
2023-03-29T20:18:38.310Z,100909.59
2023-03-29T20:21:06.465Z,100925.00
2023-03-29T20:23:35.088Z,100926.84
2023-03-29T20:26:03.191Z,100912.97
2023-03-29T20:28:31.496Z,100898.56
2023-03-29T20:31:04.833Z,100902.28
2023-03-29T20:33:32.936Z,100905.97
2023-03-29T20:36:02.213Z,100909.00
2023-03-29T20:38:30.003Z,100923.34
2023-03-29T20:40:57.772Z,100911.09
2023-03-29T20:43:25.525Z,100886.00
2023-03-29T20:45:54.223Z,100868.72
2023-03-29T20:48:23.474Z,100854.78
2023-03-29T20:50:52.345Z,100834.28
2023-03-29T20:53:21.455Z,100828.47
2023-03-29T20:55:49.251Z,100827.75
2023-03-29T20:58:16.981Z,100824.97
2023-03-29T21:00:45.322Z,100816.75
2023-03-29T21:03:13.300Z,100816.50
2023-03-29T21:05:41.112Z,100810.34
2023-03-29T21:08:08.871Z,100799.47
2023-03-29T21:10:38.065Z,100807.16
2023-03-29T21:13:05.936Z,100792.38
2023-03-29T21:15:33.788Z,100789.03
2023-03-29T21:18:01.940Z,100795.19
2023-03-29T21:20:29.882Z,100795.72
2023-03-29T21:22:58.062Z,100800.75
2023-03-29T21:25:25.865Z,100783.34
2023-03-29T21:27:54.985Z,100796.41
2023-03-29T21:30:22.796Z,100784.47
2023-03-29T21:32:50.950Z,100768.38
2023-03-29T21:35:18.981Z,100763.09
2023-03-29T21:37:46.798Z,100777.72
2023-03-29T21:40:15.240Z,100758.53
2023-03-29T21:42:43.063Z,100752.25
2023-03-29T21:45:13.018Z,100732.38
2023-03-29T21:47:40.789Z,100746.22
2023-03-29T21:50:09.404Z,100735.41
2023-03-29T21:52:37.786Z,100736.97
2023-03-29T21:55:06.202Z,100701.84
2023-03-29T21:57:34.057Z,100711.13
2023-03-29T22:00:01.805Z,100707.28
2023-03-29T22:02:31.229Z,100701.94
2023-03-29T22:04:59.009Z,100720.78
2023-03-29T22:07:26.878Z,100706.47
2023-03-29T22:09:54.763Z,100704.41
2023-03-29T22:12:22.762Z,100728.28
2023-03-29T22:14:50.501Z,100718.09
2023-03-29T22:17:18.625Z,100712.41
2023-03-29T22:19:47.839Z,100696.25
2023-03-29T22:22:16.304Z,100683.00
2023-03-29T22:24:44.083Z,100671.28
2023-03-29T22:27:12.700Z,100674.97
2023-03-29T22:29:40.534Z,100655.34
2023-03-29T22:32:08.503Z,100651.22
2023-03-29T22:34:36.351Z,100664.31
2023-03-29T22:37:05.541Z,100655.47
2023-03-29T22:39:35.731Z,100615.44
2023-03-29T22:42:03.500Z,100609.94
2023-03-29T22:44:31.867Z,100571.56
2023-03-29T22:46:59.743Z,100564.19
2023-03-29T22:49:27.578Z,100550.72
2023-03-29T22:51:55.342Z,100540.34
2023-03-29T22:54:24.560Z,100555.09
2023-03-29T22:56:52.379Z,100537.38
2023-03-29T22:59:20.284Z,100534.25
2023-03-29T23:01:48.232Z,100529.69
2023-03-29T23:04:16.151Z,100511.19
2023-03-29T23:06:43.921Z,100490.09
2023-03-29T23:09:13.419Z,100485.38
2023-03-29T23:11:43.672Z,100486.97
2023-03-29T23:14:11.463Z,100473.34
2023-03-29T23:16:39.636Z,100454.66
2023-03-29T23:19:07.422Z,100448.41
2023-03-29T23:21:36.032Z,100450.34
2023-03-29T23:24:04.092Z,100456.22
2023-03-29T23:26:31.890Z,100458.22
2023-03-29T23:29:00.968Z,100443.56
2023-03-29T23:31:28.754Z,100427.50
2023-03-29T23:33:56.514Z,100438.16
2023-03-29T23:36:27.157Z,100430.09
2023-03-29T23:38:54.910Z,100429.25
2023-03-29T23:41:22.973Z,100427.16
2023-03-29T23:43:52.197Z,100418.59
2023-03-29T23:46:21.465Z,100397.38
2023-03-29T23:48:51.254Z,100400.81
2023-03-29T23:51:23.070Z,100407.44
2023-03-29T23:53:51.410Z,100403.13
2023-03-29T23:56:19.182Z,100405.03
2023-03-29T23:58:47.138Z,100402.81
